Time;durP1;ratioP1;P1;durP2;ratioP2;P2;SDS_P1;SDS_P2;PMS_P1;PMS_P2;Temp;Humidity;BMP_temperature;BMP_pressure;BME280_temperature;BME280_humidity;BME280_pressure;Samples;Min_cycle;Max_cycle;Signal;HPM_P1;HPM_P2
2022/01/24 00:00:18;;;;;;;85.57;43.42;;;;;;;1.23;100.00;101367.88;5033707;28;20029;-79
2022/01/24 00:02:44;;;;;;;91.43;45.13;;;;;;;1.05;100.00;101334.16;5031794;28;20061;-79
2022/01/24 00:05:11;;;;;;;94.00;47.40;;;;;;;1.16;100.00;101363.47;5033454;28;20025;-79
2022/01/24 00:07:37;;;;;;;92.85;46.75;;;;;;;1.16;100.00;101358.31;5031860;28;20030;-79
2022/01/24 00:10:06;;;;;;;95.22;49.72;;;;;;;1.19;100.00;101378.91;5031915;28;20079;-80
2022/01/24 00:18:14;;;;;;;101.57;50.20;;;;;;;1.08;100.00;101353.88;5032804;28;20068;-79
2022/01/24 00:28:47;;;;;;;92.88;47.22;;;;;;;1.22;100.00;101365.25;5032635;28;20103;-80
2022/01/24 00:31:12;;;;;;;95.50;48.78;;;;;;;1.09;100.00;101346.19;5033341;28;20034;-79
2022/01/24 00:33:38;;;;;;;99.18;49.42;;;;;;;1.17;100.00;101356.63;5032597;28;20036;-79
2022/01/24 00:36:03;;;;;;;95.65;49.22;;;;;;;1.05;100.00;101343.53;5032887;28;20032;-79
2022/01/24 00:38:32;;;;;;;92.75;47.65;;;;;;;1.20;100.00;101348.97;5010061;28;20038;-79
2022/01/24 00:40:57;;;;;;;103.22;52.80;;;;;;;1.17;100.00;101351.47;5010422;28;20038;-79
2022/01/24 00:43:50;;;;;;;96.63;49.05;;;;;;;1.15;100.00;101351.47;5010291;28;20111;-79
2022/01/24 00:46:30;;;;;;;;;;;;;;;1.18;100.00;101358.34;5011006;28;20026;-79
2022/01/24 00:54:43;;;;;;;111.95;53.03;;;;;;;1.16;100.00;101375.44;5010667;28;20113;-79
2022/01/24 00:57:08;;;;;;;102.28;50.95;;;;;;;1.08;100.00;101353.88;5010225;28;20042;-79
2022/01/24 00:59:34;;;;;;;126.28;59.38;;;;;;;1.15;100.00;101376.25;5010077;28;20678;-79
2022/01/24 01:01:59;;;;;;;138.23;58.25;;;;;;;1.03;100.00;101353.78;5009935;28;20552;-78
2022/01/24 01:04:32;;;;;;;107.82;50.97;;;;;;;1.15;100.00;101363.44;5010136;28;20121;-78
2022/01/24 01:07:04;;;;;;;109.10;51.35;;;;;;;1.06;100.00;101347.88;5010077;28;20041;-79
2022/01/24 01:20:28;;;;;;;97.50;42.45;;;;;;;0.97;100.00;101367.38;5032076;28;20056;-79
2022/01/24 01:22:54;;;;;;;75.20;37.45;;;;;;;0.85;100.00;101361.13;5031697;28;20033;-79
2022/01/24 01:25:19;;;;;;;74.50;35.95;;;;;;;0.75;100.00;101345.53;5030934;28;20037;-79
2022/01/24 01:27:47;;;;;;;69.47;35.28;;;;;;;0.83;100.00;101363.66;5029102;28;20041;-78
2022/01/24 01:30:23;;;;;;;72.32;34.63;;;;;;;0.69;100.00;101344.56;5012944;28;20485;-79
2022/01/24 01:33:01;;;;;;;68.53;34.20;;;;;;;0.77;100.00;101360.97;5029145;28;20079;-79
2022/01/24 01:38:35;;;;;;;60.55;32.33;;;;;;;0.61;100.00;101335.84;5029433;28;20076;-79
2022/01/24 01:57:21;;;;;;;68.50;35.17;;;;;;;0.71;100.00;101358.25;5029277;28;20037;-79
2022/01/24 01:59:47;;;;;;;64.30;31.25;;;;;;;0.76;100.00;101374.63;5031187;28;20444;-79
2022/01/24 02:02:13;;;;;;;59.60;29.80;;;;;;;0.68;100.00;101369.34;5032309;28;20077;-78
2022/01/24 02:04:42;;;;;;;55.33;29.63;;;;;;;0.69;100.00;101368.50;5035339;28;20033;-78
2022/01/24 02:07:13;;;;;;;58.05;29.05;;;;;;;0.70;100.00;101364.22;5035737;28;20043;-79
2022/01/24 02:09:41;;;;;;;;;;;;;;;0.74;100.00;101377.16;5035911;28;20028;-79
2022/01/24 02:12:08;;;;;;;55.22;28.77;;;;;;;0.69;100.00;101368.50;5034312;28;19913;-79
2022/01/24 02:14:37;;;;;;;57.58;28.65;;;;;;;0.68;100.00;101371.91;5033974;28;20051;-79
2022/01/24 02:17:12;;;;;;;53.50;28.65;;;;;;;0.70;100.00;101366.78;5035276;28;20060;-78
2022/01/24 02:24:57;;;;;;;52.92;28.23;;;;;;;0.65;100.00;101353.03;5035106;28;20033;-79
2022/01/24 02:27:24;;;;;;;59.55;28.30;;;;;;;0.74;100.00;101355.78;5035198;28;20105;-79
2022/01/24 02:30:16;;;;;;;55.15;28.60;;;;;;;0.78;100.00;101357.56;5033880;28;20088;-79
2022/01/24 02:32:42;;;;;;;46.72;25.33;;;;;;;0.80;100.00;101360.16;5035055;28;20056;-79
2022/01/24 02:35:09;;;;;;;46.83;26.13;;;;;;;0.74;100.00;101348.94;5035164;28;20029;-79
2022/01/24 02:37:34;;;;;;;50.53;25.45;;;;;;;0.65;100.00;101333.38;5035122;28;20061;-79
2022/01/24 02:40:08;;;;;;;47.72;25.77;;;;;;;0.81;100.00;101355.06;5035012;28;20164;-79
2022/01/24 02:53:16;;;;;;;53.85;24.65;;;;;;;0.78;100.00;101355.00;5034949;28;20060;-79
2022/01/24 02:55:42;;;;;;;39.95;22.73;;;;;;;0.69;100.00;101347.97;5033259;28;20059;-78
2022/01/24 02:58:08;;;;;;;44.92;23.73;;;;;;;0.79;100.00;101364.41;5034544;28;20048;-79
2022/01/24 03:00:34;;;;;;;41.40;21.95;;;;;;;0.73;100.00;101354.03;5033873;28;20111;-79
2022/01/24 03:03:00;;;;;;;37.50;21.15;;;;;;;0.64;100.00;101339.34;5014605;28;20068;-79
2022/01/24 03:05:25;;;;;;;41.80;22.67;;;;;;;0.73;100.00;101351.47;4997502;28;20081;-79
2022/01/24 03:07:51;;;;;;;45.22;22.67;;;;;;;0.70;100.00;101352.28;4997011;28;20496;-79
2022/01/24 03:10:36;;;;;;;46.70;24.45;;;;;;;0.61;100.00;101320.47;5014721;28;20045;-79
2022/01/24 03:15:44;;;;;;;47.17;24.70;;;;;;;0.75;100.00;101348.09;5014494;28;20112;-79
2022/01/24 03:18:12;;;;;;;48.72;25.77;;;;;;;0.69;100.00;101342.84;5013279;28;20029;-78
2022/01/24 03:20:39;;;;;;;48.78;26.60;;;;;;;0.71;100.00;101346.31;5014308;28;20041;-78
2022/01/24 03:23:04;;;;;;;58.70;33.65;;;;;;;0.68;100.00;101341.13;5014467;28;20053;-78
2022/01/24 03:25:30;;;;;;;45.22;24.08;;;;;;;0.63;100.00;101331.59;5014479;28;20030;-78
2022/01/24 03:27:56;;;;;;;44.88;23.35;;;;;;;0.74;100.00;101354.06;4996375;28;20064;-79
2022/01/24 03:30:23;;;;;;;48.45;24.13;;;;;;;0.74;100.00;101359.19;5014478;28;20433;-78
2022/01/24 03:32:48;;;;;;;50.30;25.45;;;;;;;0.76;100.00;101364.38;5014028;28;20092;-79
2022/01/24 03:35:14;;;;;;;71.20;28.73;;;;;;;0.75;100.00;101360.06;5014409;28;20490;-79
2022/01/24 03:37:39;;;;;;;59.15;27.98;;;;;;;0.72;100.00;101353.19;5014060;28;20466;-79
2022/01/24 03:40:06;;;;;;;64.20;27.92;;;;;;;0.78;100.00;101370.38;4996607;28;20367;-79
2022/01/24 03:42:32;;;;;;;67.47;28.75;;;;;;;0.82;100.00;101373.88;5013999;28;20068;-78
2022/01/24 03:45:01;;;;;;;61.28;28.10;;;;;;;0.69;100.00;101362.50;5012650;28;20033;-78
2022/01/24 03:50:03;;;;;;;59.50;28.33;;;;;;;0.72;100.00;101360.88;5013683;28;20120;-78
2022/01/24 03:52:31;;;;;;;68.15;28.70;;;;;;;0.68;100.00;101364.22;5013876;28;20690;-78
2022/01/24 03:54:58;;;;;;;60.03;26.48;;;;;;;0.66;100.00;101355.59;4995834;28;20428;-79
2022/01/24 03:57:24;;;;;;;61.47;27.48;;;;;;;0.73;100.00;101370.28;5013939;28;20022;-79
2022/01/24 03:59:51;;;;;;;59.67;27.17;;;;;;;0.73;100.00;101372.00;5013586;28;20034;-78
2022/01/24 04:02:19;;;;;;;65.45;29.17;;;;;;;0.66;100.00;101368.44;5037899;28;20048;-78
2022/01/24 04:04:45;;;;;;;68.07;30.17;;;;;;;0.70;100.00;101369.38;5033553;28;20029;-79
2022/01/24 04:07:10;;;;;;;63.53;29.88;;;;;;;0.68;100.00;101365.91;5033617;28;20029;-78
2022/01/24 04:09:38;;;;;;;63.10;28.05;;;;;;;0.68;100.00;101376.16;5031864;28;20079;-79
2022/01/24 04:12:04;;;;;;;77.63;30.48;;;;;;;0.59;100.00;101365.69;5031974;28;20064;-79
2022/01/24 04:14:39;;;;;;;58.20;28.80;;;;;;;0.61;100.00;101370.03;5032084;28;20499;-78
2022/01/24 04:22:15;;;;;;;68.32;30.02;;;;;;;0.61;100.00;101380.28;5033109;28;20044;-78
2022/01/24 04:24:42;;;;;;;65.35;30.27;;;;;;;0.57;100.00;101370.81;5031117;28;20083;-78
2022/01/24 04:27:09;;;;;;;77.82;33.15;;;;;;;0.56;100.00;101378.47;5033199;28;20041;-78
2022/01/24 04:29:35;;;;;;;80.95;34.60;;;;;;;0.60;100.00;101383.69;5033100;28;20025;-78
2022/01/24 04:32:01;;;;;;;71.07;31.95;;;;;;;0.48;100.00;101380.84;5031368;28;20037;-78
2022/01/24 04:34:26;;;;;;;63.70;30.80;;;;;;;0.60;100.00;101395.66;5032699;28;20707;-78
2022/01/24 04:36:52;;;;;;;71.68;32.80;;;;;;;0.60;100.00;101393.94;5032892;28;20032;-78
2022/01/24 04:39:18;;;;;;;54.03;29.42;;;;;;;0.51;100.00;101388.63;5032846;28;20396;-78
2022/01/24 04:41:47;;;;;;;56.80;29.48;;;;;;;0.49;100.00;101388.56;5032624;28;20653;-78
2022/01/24 04:54:42;;;;;;;82.57;36.58;;;;;;;0.50;100.00;101404.81;5032665;28;20087;-79
2022/01/24 04:57:16;;;;;;;71.43;32.67;;;;;;;0.43;100.00;101382.47;5032301;28;20036;-78
2022/01/24 04:59:46;;;;;;;60.58;34.15;;;;;;;0.49;100.00;101395.41;5032567;28;20025;-78
2022/01/24 05:02:12;;;;;;;64.13;33.78;;;;;;;0.43;100.00;101392.72;5018580;28;20053;-79
2022/01/24 05:04:37;;;;;;;89.93;39.35;;;;;;;0.44;100.00;101391.88;4995037;28;20026;-78
2022/01/24 05:07:04;;;;;;;61.03;31.77;;;;;;;0.43;100.00;101401.25;4994806;28;20026;-79
2022/01/24 05:09:34;;;;;;;56.17;28.70;;;;;;;0.40;100.00;101396.06;5011274;28;20564;-78
2022/01/24 05:25:47;;;;;;;57.78;30.75;;;;;;;0.50;100.00;101408.25;4970907;28;20105;-78
2022/01/24 05:28:12;;;;;;;64.20;29.30;;;;;;;0.40;100.00;101377.25;4970915;28;20075;-78
2022/01/24 05:30:37;;;;;;;48.03;27.70;;;;;;;0.56;100.00;101402.41;4970773;28;20042;-79
2022/01/24 05:33:03;;;;;;;43.00;26.42;;;;;;;0.56;100.00;101396.41;4954248;28;20035;-79
2022/01/24 05:35:28;;;;;;;43.13;25.65;;;;;;;0.58;100.00;101399.88;4970723;28;20446;-78
2022/01/24 05:37:54;;;;;;;46.97;27.08;;;;;;;0.62;100.00;101401.66;4970492;28;20118;-79
2022/01/24 05:40:19;;;;;;;50.28;28.92;;;;;;;0.62;100.00;101407.66;4970751;28;20035;-79
2022/01/24 05:42:44;;;;;;;46.40;26.67;;;;;;;0.61;100.00;101400.81;4970664;28;20041;-79
2022/01/24 05:45:10;;;;;;;42.47;24.75;;;;;;;0.53;100.00;101392.06;4970390;28;20461;-79
2022/01/24 05:47:36;;;;;;;46.08;28.08;;;;;;;0.58;100.00;101403.28;4970965;28;20396;-78
2022/01/24 05:50:03;;;;;;;43.42;28.17;;;;;;;0.54;100.00;101404.06;4970546;28;20031;-79
2022/01/24 05:52:29;;;;;;;46.00;26.67;;;;;;;0.53;100.00;101396.34;5005131;28;20516;-78
2022/01/24 05:54:54;;;;;;;44.33;26.17;;;;;;;0.59;100.00;101406.72;5011817;28;20034;-78
2022/01/24 05:57:19;;;;;;;48.42;28.17;;;;;;;0.57;100.00;101411.81;5011958;28;20030;-79
2022/01/24 05:59:45;;;;;;;48.25;27.63;;;;;;;0.48;100.00;101391.13;4994364;28;20041;-78
2022/01/24 06:02:10;;;;;;;52.17;30.70;;;;;;;0.51;100.00;101404.00;5011624;28;20053;-79
2022/01/24 06:04:36;;;;;;;50.70;28.70;;;;;;;0.52;100.00;101410.88;5012276;28;20022;-79
2022/01/24 06:07:01;;;;;;;48.38;28.58;;;;;;;0.43;100.00;101396.13;5012234;28;20036;-79
2022/01/24 06:09:27;;;;;;;55.28;31.05;;;;;;;0.48;100.00;101411.63;4994580;28;20026;-79
2022/01/24 06:11:52;;;;;;;50.13;28.85;;;;;;;0.50;100.00;101418.50;4994323;28;20105;-79
2022/01/24 06:14:18;;;;;;;44.38;26.65;;;;;;;0.48;100.00;101422.75;4994536;28;20026;-78
2022/01/24 06:16:43;;;;;;;49.00;28.67;;;;;;;0.47;100.00;101425.28;5010769;28;20041;-79
2022/01/24 06:19:09;;;;;;;55.70;31.10;;;;;;;0.47;100.00;101410.75;5011934;28;20477;-79
2022/01/24 06:21:35;;;;;;;51.92;30.33;;;;;;;0.36;100.00;101403.66;4994647;28;20030;-75
2022/01/24 06:24:00;;;;;;;56.47;33.60;;;;;;;0.45;100.00;101412.41;5011788;28;20022;-75
2022/01/24 06:26:26;;;;;;;50.95;31.38;;;;;;;0.44;100.00;101417.50;5011913;28;20029;-75
2022/01/24 06:28:51;;;;;;;52.17;31.52;;;;;;;0.52;100.00;101431.38;5011445;28;20036;-75
2022/01/24 06:31:18;;;;;;;57.50;34.50;;;;;;;0.49;100.00;101442.41;5011619;28;20421;-75
2022/01/24 06:33:43;;;;;;;51.40;32.72;;;;;;;0.39;100.00;101426.78;5011755;28;20030;-75
2022/01/24 06:36:09;;;;;;;61.80;32.80;;;;;;;0.42;100.00;101435.44;5011401;28;20533;-75
2022/01/24 06:38:34;;;;;;;51.78;31.85;;;;;;;0.45;100.00;101434.63;5011629;28;20068;-75
2022/01/24 06:41:00;;;;;;;52.17;31.23;;;;;;;0.42;100.00;101435.44;5011332;28;20469;-75
2022/01/24 06:43:25;;;;;;;54.72;31.42;;;;;;;0.49;100.00;101446.66;5011532;28;20029;-75
2022/01/24 06:45:51;;;;;;;51.25;32.00;;;;;;;0.57;100.00;101447.72;5011197;28;20109;-75
2022/01/24 06:48:16;;;;;;;50.20;29.88;;;;;;;0.50;100.00;101440.72;5013717;28;20038;-75
2022/01/24 06:50:42;;;;;;;55.17;31.52;;;;;;;0.53;100.00;101442.50;5014915;28;20026;-75
2022/01/24 06:53:07;;;;;;;54.90;32.55;;;;;;;0.51;100.00;101429.66;5014678;28;20061;-75
2022/01/24 06:55:33;;;;;;;53.35;31.73;;;;;;;0.44;100.00;101418.38;5015267;28;20033;-75
2022/01/24 06:57:58;;;;;;;48.15;30.17;;;;;;;0.55;100.00;101434.00;5014526;28;20026;-75
2022/01/24 07:00:26;;;;;;;52.20;31.92;;;;;;;0.60;100.00;101434.13;5014963;28;20037;-75
2022/01/24 07:02:56;;;;;;;52.85;31.35;;;;;;;0.63;100.00;101453.00;5033567;28;20052;-76
2022/01/24 07:05:22;;;;;;;44.20;27.15;;;;;;;0.43;100.00;101426.91;5033984;28;20026;-75
2022/01/24 07:07:48;;;;;;;49.72;29.85;;;;;;;0.65;100.00;101455.59;5034395;28;20477;-78
2022/01/24 07:10:14;;;;;;;55.75;31.85;;;;;;;0.71;100.00;101466.84;5016434;28;20120;-78
2022/01/24 07:12:40;;;;;;;49.00;28.63;;;;;;;0.69;100.00;101467.66;5016654;28;20354;-79
2022/01/24 07:15:10;;;;;;;44.40;27.00;;;;;;;0.55;100.00;101443.38;5016154;28;20036;-78
2022/01/24 07:18:11;;;;;;;47.55;28.08;;;;;;;0.59;100.00;101452.88;5034447;28;20087;-79
2022/01/24 07:20:35;;;;;;;43.00;25.52;;;;;;;0.50;100.00;101430.44;5034031;28;20061;-78
2022/01/24 07:23:04;;;;;;;46.30;27.52;;;;;;;0.64;100.00;101457.28;5016147;28;20036;-78
2022/01/24 07:25:30;;;;;;;44.60;25.52;;;;;;;0.56;100.00;101442.56;5016530;28;20052;-78
2022/01/24 07:27:55;;;;;;;45.38;28.52;;;;;;;0.50;100.00;101430.44;5016305;28;20477;-77
2022/01/24 07:30:21;;;;;;;42.50;25.98;;;;;;;0.64;100.00;101464.97;5033582;28;20515;-78
2022/01/24 07:32:46;;;;;;;42.05;25.65;;;;;;;0.63;100.00;101459.81;5015436;28;20033;-78
2022/01/24 07:35:12;;;;;;;37.53;24.20;;;;;;;0.67;100.00;101469.28;5033745;28;20032;-77
2022/01/24 07:37:38;;;;;;;43.20;28.35;;;;;;;0.70;100.00;101471.94;4999701;28;20037;-78
2022/01/24 07:40:13;;;;;;;40.55;25.70;;;;;;;0.58;100.00;101454.56;5015798;28;20074;-78
2022/01/24 07:42:54;;;;;;;39.95;24.13;;;;;;;0.70;100.00;101471.94;4978770;28;20063;-77
2022/01/24 07:45:26;;;;;;;41.17;23.60;;;;;;;0.62;100.00;101463.19;4972566;28;20038;-77
2022/01/24 07:47:53;;;;;;;44.10;24.38;;;;;;;0.71;100.00;101476.22;4972814;28;20426;-78
2022/01/24 07:50:22;;;;;;;40.80;25.38;;;;;;;0.67;100.00;101467.59;4969752;28;20070;-78
2022/01/24 07:52:48;;;;;;;39.88;23.55;;;;;;;0.59;100.00;101440.94;4956209;28;20027;-78
2022/01/24 07:55:14;;;;;;;40.25;24.08;;;;;;;0.69;100.00;101452.25;4972197;28;20026;-78
2022/01/24 07:57:39;;;;;;;38.95;23.77;;;;;;;0.72;100.00;101457.47;4972280;28;20123;-78
2022/01/24 08:00:06;;;;;;;40.10;25.40;;;;;;;0.63;100.00;101446.97;4970937;28;20046;-77
2022/01/24 08:02:32;;;;;;;40.53;23.70;;;;;;;0.73;100.00;101464.31;4988383;28;20402;-77
2022/01/24 08:04:58;;;;;;;34.40;21.83;;;;;;;0.70;100.00;101459.13;5010980;28;20029;-78
2022/01/24 08:07:23;;;;;;;40.83;22.70;;;;;;;0.76;100.00;101469.53;5011170;28;20073;-78
2022/01/24 08:09:48;;;;;;;35.33;23.02;;;;;;;0.77;100.00;101478.09;5011409;28;20100;-78
2022/01/24 08:12:14;;;;;;;43.03;23.55;;;;;;;0.81;100.00;101472.19;4994396;28;20057;-78
2022/01/24 08:14:39;;;;;;;40.80;24.77;;;;;;;0.85;100.00;101481.69;5011098;28;20033;-78
2022/01/24 08:17:05;;;;;;;40.80;25.38;;;;;;;0.83;100.00;101473.09;5010985;28;20112;-78
2022/01/24 08:19:32;;;;;;;40.28;25.77;;;;;;;0.79;100.00;101474.72;5011154;28;20389;-78
2022/01/24 08:21:58;;;;;;;37.75;23.75;;;;;;;0.87;100.00;101477.44;5010667;28;20462;-78
2022/01/24 08:24:24;;;;;;;34.45;22.65;;;;;;;0.95;100.00;101491.31;5010862;28;20067;-78
2022/01/24 08:26:49;;;;;;;43.83;24.52;;;;;;;0.89;100.00;101480.94;5010905;28;20073;-78
2022/01/24 08:29:15;;;;;;;44.05;26.42;;;;;;;0.93;100.00;101485.31;5010627;28;20141;-77
2022/01/24 08:31:40;;;;;;;57.03;38.63;;;;;;;0.91;100.00;101487.81;4994365;28;20374;-78
2022/01/24 08:34:05;;;;;;;44.30;29.45;;;;;;;0.96;100.00;101500.72;5029935;28;20030;-77
2022/01/24 08:36:31;;;;;;;37.25;22.85;;;;;;;0.85;100.00;101499.66;5033029;28;20033;-78
2022/01/24 08:39:03;;;;;;;36.40;22.85;;;;;;;0.87;100.00;101497.97;5032570;28;20021;-78
2022/01/24 08:41:40;;;;;;;39.20;25.73;;;;;;;0.92;100.00;101494.66;5031706;28;20040;-78
2022/01/24 08:46:46;;;;;;;39.40;22.38;;;;;;;0.85;100.00;101474.88;5032583;28;20131;-78
2022/01/24 08:49:11;;;;;;;31.13;19.85;;;;;;;0.95;100.00;101494.75;5031260;28;20025;-78
2022/01/24 08:51:37;;;;;;;37.60;20.88;;;;;;;0.99;100.00;101499.09;5032659;28;20711;-78
2022/01/24 08:54:04;;;;;;;37.13;22.52;;;;;;;0.99;100.00;101501.69;5032239;28;20025;-78
2022/01/24 08:56:30;;;;;;;37.65;21.80;;;;;;;0.89;100.00;101476.66;5032912;28;20366;-78
2022/01/24 08:58:56;;;;;;;33.97;21.63;;;;;;;0.94;100.00;101492.16;5032332;28;20037;-78
2022/01/24 09:01:21;;;;;;;36.58;22.30;;;;;;;1.03;100.00;101499.19;5025176;28;20053;-78
2022/01/24 09:03:46;;;;;;;36.00;23.38;;;;;;;1.04;100.00;101500.91;5012755;28;20028;-78
2022/01/24 09:06:13;;;;;;;38.88;22.95;;;;;;;0.97;100.00;101489.66;5012423;28;20036;-78
2022/01/24 09:08:39;;;;;;;33.97;22.48;;;;;;;1.03;100.00;101497.47;4994927;28;20033;-78
2022/01/24 09:11:04;;;;;;;33.83;23.08;;;;;;;1.02;100.00;101494.91;5011944;28;20438;-78
2022/01/24 09:13:31;;;;;;;37.50;23.17;;;;;;;1.03;100.00;101499.19;5012379;28;20049;-78
2022/01/24 09:15:57;;;;;;;74.95;40.88;;;;;;;0.93;100.00;101475.03;5012321;28;20417;-78
2022/01/24 09:18:22;;;;;;;46.33;28.13;;;;;;;0.93;100.00;101493.84;5012289;28;20073;-77
2022/01/24 09:20:50;;;;;;;87.95;57.70;;;;;;;0.88;100.00;101482.59;5012434;28;20025;-78
2022/01/24 09:23:16;;;;;;;38.17;25.67;;;;;;;0.97;100.00;101494.78;5012150;28;20065;-78
2022/01/24 09:25:42;;;;;;;35.00;23.58;;;;;;;0.96;100.00;101480.22;4994556;28;20049;-78
2022/01/24 09:28:08;;;;;;;34.33;23.63;;;;;;;0.83;100.00;101438.03;5012003;28;20038;-78
2022/01/24 09:30:33;;;;;;;31.77;20.73;;;;;;;0.98;100.00;101468.28;4995058;28;20363;-78
2022/01/24 09:32:59;;;;;;;33.40;18.33;;;;;;;1.10;100.00;101490.78;5012025;28;20018;-78
2022/01/24 09:35:27;;;;;;;35.45;21.20;;;;;;;1.13;100.00;101472.88;4994591;28;20056;-78
2022/01/24 09:37:53;;;;;;;40.45;23.63;;;;;;;1.15;100.00;101469.53;4994396;28;20018;-78
2022/01/24 09:40:19;;;;;;;35.17;23.67;;;;;;;1.19;100.00;101460.19;4994420;28;20036;-79
2022/01/24 09:42:45;;;;;;;36.35;21.02;;;;;;;1.22;100.00;101458.56;5012080;28;20026;-79
2022/01/24 09:45:12;;;;;;;36.38;20.67;;;;;;;1.37;100.00;101465.69;5013986;28;20082;-79
2022/01/24 09:47:38;;;;;;;35.25;21.67;;;;;;;1.48;100.00;101473.63;5021487;28;20460;-80
2022/01/24 09:50:10;;;;;;;36.70;21.70;;;;;;;1.50;100.00;101475.34;5017731;28;20029;-80
2022/01/24 09:52:39;;;;;;;35.13;20.05;;;;;;;1.45;100.00;101453.00;5011099;28;20416;-80
2022/01/24 09:55:05;;;;;;;30.77;19.70;;;;;;;1.62;100.00;101479.88;5029172;28;20382;-79
2022/01/24 09:57:30;;;;;;;35.10;22.65;;;;;;;1.66;100.00;101475.66;4992969;28;20131;-80
2022/01/24 09:59:56;;;;;;;58.35;33.35;;;;;;;1.67;100.00;101475.69;5011123;28;20485;-80
2022/01/24 10:02:25;;;;;;;45.95;27.23;;;;;;;1.73;100.00;101485.22;5029159;28;20053;-79
2022/01/24 10:04:51;;;;;;;73.13;40.92;;;;;;;1.69;100.00;101471.44;5049306;28;20406;-79
2022/01/24 10:07:16;;;;;;;39.42;27.63;;;;;;;1.77;100.00;101476.75;5049119;28;20021;-80
2022/01/24 10:09:54;;;;;;;48.05;28.33;;;;;;;1.84;100.00;101480.28;5041955;28;20033;-80
2022/01/24 10:17:48;;;;;;;45.85;27.40;;;;;;;1.89;100.00;101466.66;5030595;28;20509;-79
2022/01/24 10:20:19;;;;;;;47.67;27.65;;;;;;;1.92;100.00;101471.84;5045536;28;20017;-80
2022/01/24 10:23:12;;;;;;;34.20;22.85;;;;;;;1.98;100.00;101465.94;5050567;28;20029;-79
2022/01/24 10:25:59;;;;;;;46.35;25.30;;;;;;;2.05;100.00;101470.38;5054223;28;20419;-79
2022/01/24 10:28:40;;;;;;;39.47;23.50;;;;;;;2.09;100.00;101469.59;5054529;28;20044;-80
2022/01/24 10:31:16;;;;;;;45.10;27.10;;;;;;;2.03;100.00;101440.34;5052806;28;20378;-79
2022/01/24 10:36:53;;;;;;;39.08;23.65;;;;;;;2.23;100.00;101452.69;5011847;28;20436;-79
2022/01/24 10:39:33;;;;;;;36.58;22.15;;;;;;;2.24;100.00;101446.72;5011351;28;20101;-79
2022/01/24 10:42:36;;;;;;;39.22;25.15;;;;;;;2.22;100.00;101448.38;4995055;28;20041;-79
2022/01/24 10:45:15;;;;;;;47.40;27.85;;;;;;;2.18;100.00;101456.03;5011466;28;20524;-79
2022/01/24 10:47:48;;;;;;;40.30;23.90;;;;;;;2.22;100.00;101462.94;5011510;28;20048;-80
2022/01/24 10:50:24;;;;;;;34.92;21.45;;;;;;;2.22;100.00;101458.66;5011371;28;20029;-80
2022/01/24 10:52:51;;;;;;;34.85;20.20;;;;;;;2.26;100.00;101449.28;5008747;28;20042;-80
2022/01/24 10:55:22;;;;;;;37.53;22.77;;;;;;;2.37;100.00;101458.06;4991892;28;20057;-80
2022/01/24 10:57:50;;;;;;;34.88;21.52;;;;;;;2.36;100.00;101437.44;5003125;28;20406;-79
2022/01/24 11:00:29;;;;;;;35.75;18.67;;;;;;;2.43;100.00;101444.41;5012069;28;20057;-79
2022/01/24 11:02:59;;;;;;;35.47;21.48;;;;;;;2.45;100.00;101440.19;4995641;28;20050;-79
2022/01/24 11:05:29;;;;;;;39.38;23.38;;;;;;;2.36;100.00;101422.91;4995209;28;20096;-79
2022/01/24 11:07:59;;;;;;;36.85;24.20;;;;;;;2.41;100.00;101438.41;5011678;28;20456;-79
2022/01/24 11:10:32;;;;;;;34.78;21.65;;;;;;;2.37;100.00;101431.47;5012135;28;20237;-79
2022/01/24 11:12:58;;;;;;;34.08;20.88;;;;;;;2.43;100.00;101432.41;4999415;28;20131;-79
2022/01/24 11:15:26;;;;;;;38.35;22.80;;;;;;;2.40;100.00;101422.13;5053154;28;20029;-80
2022/01/24 11:17:53;;;;;;;31.73;21.55;;;;;;;2.49;100.00;101417.09;5054312;28;20032;-80
2022/01/24 11:20:21;;;;;;;30.15;21.05;;;;;;;2.66;100.00;101439.63;5052285;28;20060;-80
2022/01/24 11:22:58;;;;;;;32.70;21.23;;;;;;;2.60;100.00;101413.81;5052848;28;20029;-80
2022/01/24 11:25:25;;;;;;;29.75;21.17;;;;;;;2.75;100.00;101420.03;5052999;28;20033;-79
2022/01/24 11:27:50;;;;;;;31.98;21.48;;;;;;;2.78;100.00;101419.19;5054176;28;20392;-80
2022/01/24 11:30:21;;;;;;;39.72;25.33;;;;;;;2.80;100.00;101430.38;5052528;28;20033;-80
2022/01/24 11:33:07;;;;;;;45.63;27.67;;;;;;;2.73;100.00;101419.13;5052521;28;20506;-80
2022/01/24 11:35:39;;;;;;;57.50;34.90;;;;;;;2.73;100.00;101426.00;5035204;28;20037;-80
2022/01/24 11:38:36;;;;;;;46.78;27.85;;;;;;;2.60;100.00;101413.81;5033307;28;20045;-79
2022/01/24 11:41:06;;;;;;;42.85;27.63;;;;;;;2.63;100.00;101422.44;5033766;28;20037;-79
2022/01/24 11:43:35;;;;;;;44.65;28.00;;;;;;;2.41;100.00;101399.84;5033836;28;20424;-80
2022/01/24 11:46:09;;;;;;;45.60;29.83;;;;;;;2.47;100.00;101420.47;5048240;28;20036;-80
2022/01/24 11:48:38;;;;;;;51.13;34.22;;;;;;;2.48;100.00;101420.50;5052528;28;20044;-79
2022/01/24 11:51:11;;;;;;;;;;;;;;;2.51;100.00;101424.81;5053849;28;20461;-79
2022/01/24 11:53:41;;;;;;;50.17;31.70;;;;;;;2.49;100.00;101422.25;5053552;28;20619;-79
2022/01/24 11:56:23;;;;;;;46.15;30.08;;;;;;;2.56;100.00;101424.88;5053338;28;20032;-78
2022/01/24 11:58:50;;;;;;;46.55;29.52;;;;;;;2.48;100.00;101404.19;5040136;28;20021;-78
2022/01/24 12:01:36;;;;;;;50.20;30.52;;;;;;;2.50;100.00;101405.97;5033322;28;20053;-78
2022/01/24 12:04:02;;;;;;;51.30;32.53;;;;;;;2.56;100.00;101399.16;5015496;28;20037;-78
2022/01/24 12:06:28;;;;;;;46.65;31.10;;;;;;;2.56;100.00;101389.75;5033248;28;20035;-78
2022/01/24 12:09:23;;;;;;;50.53;29.00;;;;;;;2.72;100.00;101411.41;5015719;28;20435;-78
2022/01/24 12:11:52;;;;;;;40.30;26.88;;;;;;;2.66;100.00;101404.47;4990050;28;20533;-78
2022/01/24 12:14:23;;;;;;;40.80;26.83;;;;;;;2.53;100.00;101373.41;4975013;28;20675;-78
2022/01/24 12:16:49;;;;;;;39.10;25.20;;;;;;;2.62;100.00;101392.41;4976050;28;20050;-79
2022/01/24 12:19:47;;;;;;;41.78;27.65;;;;;;;2.60;100.00;101377.78;4991118;28;20102;-78
2022/01/24 12:22:33;;;;;;;39.42;25.90;;;;;;;2.71;100.00;101400.25;4914420;29;20075;-78
2022/01/24 12:25:03;;;;;;;39.47;27.45;;;;;;;2.75;100.00;101393.44;4914177;29;20226;-78
2022/01/24 12:27:28;;;;;;;35.67;25.35;;;;;;;2.81;100.00;101392.66;4914459;29;20100;-78
2022/01/24 12:29:56;;;;;;;39.17;24.60;;;;;;;2.76;100.00;101390.03;4914391;29;20598;-78
2022/01/24 12:32:24;;;;;;;34.83;23.33;;;;;;;2.68;100.00;101379.63;4914063;29;20036;-78
2022/01/24 12:34:50;;;;;;;40.35;25.77;;;;;;;2.69;100.00;101380.47;4914027;29;20485;-78
2022/01/24 12:37:29;;;;;;;44.78;28.85;;;;;;;2.65;100.00;101384.72;4898069;29;20131;-79
2022/01/24 12:40:00;;;;;;;49.50;30.17;;;;;;;2.60;100.00;101385.50;4914273;29;20749;-79
2022/01/24 12:42:40;;;;;;;42.70;26.88;;;;;;;2.52;100.00;101369.09;4910465;29;20136;-79
2022/01/24 12:48:07;;;;;;;43.13;27.02;;;;;;;2.46;100.00;101363.03;4952258;29;20058;-79
2022/01/24 12:50:33;;;;;;;;;;;;;;;2.53;100.00;101379.44;4952473;28;20039;-79
2022/01/24 12:52:59;;;;;;;42.55;24.20;;;;;;;2.48;100.00;101365.63;4951968;29;19910;-79
2022/01/24 12:55:24;;;;;;;42.95;26.88;;;;;;;2.47;100.00;101369.91;4952428;29;20110;-79
2022/01/24 12:57:50;;;;;;;50.35;32.30;;;;;;;2.34;100.00;101347.44;4951963;28;20031;-79
2022/01/24 13:00:17;;;;;;;49.50;28.42;;;;;;;2.40;100.00;101362.06;4951804;28;20127;-79
2022/01/24 13:02:44;;;;;;;35.47;22.80;;;;;;;2.38;100.00;101371.50;4969164;28;20067;-78
2022/01/24 13:05:15;;;;;;;36.50;24.27;;;;;;;2.33;100.00;101357.72;4971033;28;20034;-78
2022/01/24 13:07:53;;;;;;;48.78;31.90;;;;;;;2.34;100.00;101352.56;4971343;28;20034;-79
2022/01/24 13:10:22;;;;;;;45.58;28.83;;;;;;;2.26;100.00;101343.88;4970934;28;20035;-78